Ana Sayfa
METAR-TAF:

METAR-TAF

Havaalanları :

Dalton Municipal Airport

Dalton, Georgia, Amerika Birleşik Devletleri

Enlem: 34-43-18N, Boylam: 084-52-09W, yükseklik: 216 m

Güncel hava durumu gözlemi

Rapor saat 17:15 UTC de 16 dakika önce yapıldı.
Rüzgar güneydan 4 kt
Sıcaklık 31°C
Nem 38%
Basınç 1016 hPa
Görüş mesafesi: 16.1 km
38000 ft yükseklikte az bulutlu

METAR: KDNN 251715Z AUTO 19004KT 10SM FEW380 31/15 A3000 RMK AO2 T03110146

Saat: 13:31 (17:31 UTC)


TAF: eksik

4.000'den fazla havaalanı için hava durumu gözlemleri ve tahminleri (METAR ve TAF raporları).

Kullanılabilir istasyonlar harita üzerinde sarı ve kırmızı noktalarla gösterilir.

İstasyonun adını görmek için fareyi noktanın üzerinde gezdirin.

Sonrasında hava gözlem ve tahminlerini görmek için tıklayın.

Haritayı değiştirmek için: yaklaştırmak için siyah artı işaretli yeşil düğmeye ve uzaklaştırmak için de eksi işaretli düğmeye hızla tıklayın; bitişik haritalar için yeşil okları kullanın.


METAR-TAF: